Veuillez saisir l'adresse e-mail associée à votre compte d'utilisateur. Un code de vérification vous sera adressé. Lorsque vous le recevrez, vous pourrez choisir un nouveau mot de passe

METAR TAF

[Source: ADDS]
METAR
LFCR 121630Z AUTO 28004KT 160V330 CAVOK 26/04 Q1020 NOSIG =
LFCR 121100Z 1212/1312 29008KT CAVOK BECMG 1223/1301 VRB02KT BECMG 1308/1310 28007KT LFBA 121630Z AUTO 36006KT 320V080 CAVOK 29/11 Q1018 NOSIG =
LFBA 121400Z 1215/1224 30005KT CAVOK LFSL 121630Z AUTO 03003KT 300V090 CAVOK 27/02 Q1019 NOSIG =
LFSL 121400Z 1215/1224 35004KT CAVOK LFLW 121630Z AUTO 12005KT 060V200 CAVOK 26/05 Q1021 NOSIG =
LFLW 121400Z 1215/1224 29005KT CAVOK BECMG 1220/1222 VRB02KT
TAF
LFCR 121100Z 1212/1312 29008KT CAVOK BECMG 1223/1301 VRB02KT BECMG 1308/1310 28007KT =
LFBA 121400Z 1215/1224 30005KT CAVOK =
LFSL 121400Z 1215/1224 35004KT CAVOK =
LFLW 121400Z 1215/1224 29005KT CAVOK BECMG 1220/1222 VRB02KT =
SR / SS: 04:21 / 19:37 UTC (LFCC 2020-07-12)